Swisshome, Oregon
Current Conditions -  °F | °C
As of 12:54 AM on Friday 24 Oct 2014 (Local Time) from KEUG Reporting Station
Clear Clear  
Wind Chill: 51°   Ceiling: Unl
Heat Index: 51°   Visibility: 10mi
Dew Point: 49°   Wind: 3mph
Humidity: 92%   Direction: 220°SW
Pressure: 30.02"   Gusts: NA
Location:  44.06°N, 123.8°W
Report Text: KEUG 240754Z AUTO 22003KT 10SM CLR 11/09 A3002 RMK AO2 SLP167 T01060094 401610106
Loading
Personal Weather Stations






























Interactive Weather Map
Tropical Storm Tracking
New forecast layout! Learn more

10-Day Weather Forecast

Advertisements
Track Severe Weather on mobile